sensor_id;sensor_type;location;lat;lon;timestamp;pressure;altitude;pressure_sealevel;temperature;humidity
61814;BME280;73144;-35.164;149.098;2024-02-15T00:01:13;94705.47;;;14.28;65.15
61814;BME280;73144;-35.164;149.098;2024-02-15T00:03:43;94708.59;;;14.09;65.25
61814;BME280;73144;-35.164;149.098;2024-02-15T00:06:11;94707.67;;;14.39;65.03
61814;BME280;73144;-35.164;149.098;2024-02-15T00:08:40;94700.55;;;14.69;65.04
61814;BME280;73144;-35.164;149.098;2024-02-15T00:11:09;94696.48;;;14.56;65.27
61814;BME280;73144;-35.164;149.098;2024-02-15T00:13:37;94701.32;;;14.64;65.77
61814;BME280;73144;-35.164;149.098;2024-02-15T00:16:06;94705.24;;;14.69;65.18
61814;BME280;73144;-35.164;149.098;2024-02-15T00:18:35;94701.31;;;14.46;64.68
61814;BME280;73144;-35.164;149.098;2024-02-15T00:21:05;94696.12;;;14.65;65.13
61814;BME280;73144;-35.164;149.098;2024-02-15T00:23:33;94701.68;;;14.50;65.26
61814;BME280;73144;-35.164;149.098;2024-02-15T00:26:02;94707.05;;;14.48;65.05
61814;BME280;73144;-35.164;149.098;2024-02-15T00:28:30;94702.67;;;14.69;65.28
61814;BME280;73144;-35.164;149.098;2024-02-15T00:30:59;94699.40;;;14.55;65.23
61814;BME280;73144;-35.164;149.098;2024-02-15T00:33:28;94700.63;;;14.61;64.76
61814;BME280;73144;-35.164;149.098;2024-02-15T00:35:56;94699.49;;;14.61;65.18
61814;BME280;73144;-35.164;149.098;2024-02-15T00:38:25;94697.83;;;14.62;65.10
61814;BME280;73144;-35.164;149.098;2024-02-15T00:40:53;94698.02;;;14.61;65.15
61814;BME280;73144;-35.164;149.098;2024-02-15T00:43:22;94692.81;;;14.82;65.28
61814;BME280;73144;-35.164;149.098;2024-02-15T00:45:51;94691.41;;;14.87;65.11
61814;BME280;73144;-35.164;149.098;2024-02-15T00:48:20;94690.09;;;14.88;65.11
61814;BME280;73144;-35.164;149.098;2024-02-15T00:50:49;94683.16;;;14.72;65.02
61814;BME280;73144;-35.164;149.098;2024-02-15T00:53:17;94673.87;;;14.85;65.00
61814;BME280;73144;-35.164;149.098;2024-02-15T00:55:46;94666.22;;;15.02;64.86
61814;BME280;73144;-35.164;149.098;2024-02-15T00:58:15;94667.60;;;14.89;64.55
61814;BME280;73144;-35.164;149.098;2024-02-15T01:00:44;94665.56;;;14.95;65.03
61814;BME280;73144;-35.164;149.098;2024-02-15T01:03:12;94662.33;;;15.35;64.66
61814;BME280;73144;-35.164;149.098;2024-02-15T01:05:41;94663.04;;;15.06;65.01
61814;BME280;73144;-35.164;149.098;2024-02-15T01:08:09;94659.58;;;15.16;64.98
61814;BME280;73144;-35.164;149.098;2024-02-15T01:10:38;94655.86;;;15.44;64.51
61814;BME280;73144;-35.164;149.098;2024-02-15T01:13:07;94651.55;;;15.45;64.71
61814;BME280;73144;-35.164;149.098;2024-02-15T01:15:35;94645.51;;;15.36;64.11
61814;BME280;73144;-35.164;149.098;2024-02-15T01:18:04;94646.70;;;15.47;64.62
61814;BME280;73144;-35.164;149.098;2024-02-15T01:20:33;94649.24;;;15.26;63.77
61814;BME280;73144;-35.164;149.098;2024-02-15T01:23:02;94647.65;;;15.30;64.31
61814;BME280;73144;-35.164;149.098;2024-02-15T01:25:31;94643.37;;;15.58;64.55
61814;BME280;73144;-35.164;149.098;2024-02-15T01:28:00;94638.76;;;15.57;64.00
61814;BME280;73144;-35.164;149.098;2024-02-15T01:30:29;94635.77;;;15.50;64.17
61814;BME280;73144;-35.164;149.098;2024-02-15T01:32:58;94636.56;;;15.85;65.17
61814;BME280;73144;-35.164;149.098;2024-02-15T01:35:27;94635.54;;;15.88;63.80
61814;BME280;73144;-35.164;149.098;2024-02-15T01:37:56;94635.51;;;15.83;63.89
61814;BME280;73144;-35.164;149.098;2024-02-15T01:40:24;94632.29;;;15.93;64.69
61814;BME280;73144;-35.164;149.098;2024-02-15T01:42:54;94633.57;;;15.96;64.64
61814;BME280;73144;-35.164;149.098;2024-02-15T01:45:22;94629.63;;;15.70;63.93
61814;BME280;73144;-35.164;149.098;2024-02-15T01:47:52;94626.50;;;15.82;64.02
61814;BME280;73144;-35.164;149.098;2024-02-15T01:50:22;94621.50;;;15.81;63.93
61814;BME280;73144;-35.164;149.098;2024-02-15T01:52:53;94618.37;;;16.03;64.38
61814;BME280;73144;-35.164;149.098;2024-02-15T01:55:23;94616.80;;;15.83;64.72
61814;BME280;73144;-35.164;149.098;2024-02-15T01:57:53;94620.58;;;16.17;64.14
61814;BME280;73144;-35.164;149.098;2024-02-15T02:00:22;94618.97;;;16.09;64.44
61814;BME280;73144;-35.164;149.098;2024-02-15T02:02:54;94621.79;;;15.92;64.94
61814;BME280;73144;-35.164;149.098;2024-02-15T02:05:24;94618.36;;;15.92;64.11
61814;BME280;73144;-35.164;149.098;2024-02-15T02:07:54;94616.00;;;15.86;64.02
61814;BME280;73144;-35.164;149.098;2024-02-15T02:10:22;94613.47;;;15.77;64.63
61814;BME280;73144;-35.164;149.098;2024-02-15T02:12:52;94610.40;;;15.69;64.40
61814;BME280;73144;-35.164;149.098;2024-02-15T02:15:21;94608.48;;;16.11;64.92
61814;BME280;73144;-35.164;149.098;2024-02-15T02:17:50;94606.56;;;15.89;64.87
61814;BME280;73144;-35.164;149.098;2024-02-15T02:20:19;94604.79;;;16.18;64.68
61814;BME280;73144;-35.164;149.098;2024-02-15T02:22:53;94600.14;;;15.93;65.08
61814;BME280;73144;-35.164;149.098;2024-02-15T02:25:22;94604.21;;;16.31;64.76
61814;BME280;73144;-35.164;149.098;2024-02-15T02:27:51;94604.03;;;16.05;64.72
61814;BME280;73144;-35.164;149.098;2024-02-15T02:30:21;94608.33;;;16.10;65.34
61814;BME280;73144;-35.164;149.098;2024-02-15T02:32:50;94604.97;;;16.08;64.55
61814;BME280;73144;-35.164;149.098;2024-02-15T02:35:18;94603.07;;;16.11;64.99
61814;BME280;73144;-35.164;149.098;2024-02-15T02:37:47;94604.09;;;16.15;64.49
61814;BME280;73144;-35.164;149.098;2024-02-15T02:40:16;94602.90;;;16.44;64.84
61814;BME280;73144;-35.164;149.098;2024-02-15T02:42:50;94605.44;;;16.17;64.52
61814;BME280;73144;-35.164;149.098;2024-02-15T02:45:20;94604.96;;;16.14;64.93
61814;BME280;73144;-35.164;149.098;2024-02-15T02:47:49;94605.88;;;16.09;64.83
61814;BME280;73144;-35.164;149.098;2024-02-15T02:50:18;94609.63;;;15.92;65.89
61814;BME280;73144;-35.164;149.098;2024-02-15T02:52:48;94606.70;;;16.13;65.20
61814;BME280;73144;-35.164;149.098;2024-02-15T02:55:17;94608.55;;;15.87;64.95
61814;BME280;73144;-35.164;149.098;2024-02-15T02:57:45;94604.29;;;15.90;65.29
61814;BME280;73144;-35.164;149.098;2024-02-15T03:00:15;94601.16;;;16.00;65.33
61814;BME280;73144;-35.164;149.098;2024-02-15T03:02:45;94599.99;;;16.18;64.97
61814;BME280;73144;-35.164;149.098;2024-02-15T03:05:14;94596.02;;;16.01;65.06
61814;BME280;73144;-35.164;149.098;2024-02-15T03:07:43;94594.45;;;16.30;65.34
61814;BME280;73144;-35.164;149.098;2024-02-15T03:10:12;94596.53;;;16.14;65.43
61814;BME280;73144;-35.164;149.098;2024-02-15T03:12:41;94600.54;;;16.25;65.03
61814;BME280;73144;-35.164;149.098;2024-02-15T03:15:11;94598.02;;;16.28;65.01
61814;BME280;73144;-35.164;149.098;2024-02-15T03:17:41;94595.67;;;16.49;65.18
61814;BME280;73144;-35.164;149.098;2024-02-15T03:20:12;94598.07;;;16.33;65.92
61814;BME280;73144;-35.164;149.098;2024-02-15T03:22:41;94595.78;;;16.43;65.48
61814;BME280;73144;-35.164;149.098;2024-02-15T03:25:11;94596.61;;;16.55;65.25
61814;BME280;73144;-35.164;149.098;2024-02-15T03:27:39;94595.05;;;16.46;65.00
61814;BME280;73144;-35.164;149.098;2024-02-15T03:30:08;94595.31;;;16.49;64.94
61814;BME280;73144;-35.164;149.098;2024-02-15T03:32:37;94595.42;;;16.67;65.06
61814;BME280;73144;-35.164;149.098;2024-02-15T03:35:07;94596.60;;;16.53;65.24
61814;BME280;73144;-35.164;149.098;2024-02-15T03:37:36;94594.73;;;16.45;65.40
61814;BME280;73144;-35.164;149.098;2024-02-15T03:40:06;94590.53;;;16.19;65.57
61814;BME280;73144;-35.164;149.098;2024-02-15T03:42:35;94585.71;;;16.42;65.47
61814;BME280;73144;-35.164;149.098;2024-02-15T03:45:05;94585.08;;;16.30;65.21
61814;BME280;73144;-35.164;149.098;2024-02-15T03:47:34;94583.04;;;16.64;65.82
61814;BME280;73144;-35.164;149.098;2024-02-15T03:50:04;94584.39;;;16.50;65.60
61814;BME280;73144;-35.164;149.098;2024-02-15T03:52:33;94583.98;;;16.48;65.20
61814;BME280;73144;-35.164;149.098;2024-02-15T03:55:02;94587.42;;;16.56;65.61
61814;BME280;73144;-35.164;149.098;2024-02-15T03:57:32;94589.37;;;16.27;66.01
61814;BME280;73144;-35.164;149.098;2024-02-15T04:00:01;94585.57;;;16.40;65.73
61814;BME280;73144;-35.164;149.098;2024-02-15T04:02:30;94580.13;;;16.14;66.14
61814;BME280;73144;-35.164;149.098;2024-02-15T04:04:59;94573.69;;;15.87;66.19
61814;BME280;73144;-35.164;149.098;2024-02-15T04:07:27;94570.34;;;15.97;66.94
61814;BME280;73144;-35.164;149.098;2024-02-15T04:09:57;94565.16;;;16.65;66.16
61814;BME280;73144;-35.164;149.098;2024-02-15T04:12:26;94564.61;;;16.75;65.96
61814;BME280;73144;-35.164;149.098;2024-02-15T04:14:56;94562.34;;;16.49;65.89
61814;BME280;73144;-35.164;149.098;2024-02-15T04:17:24;94564.43;;;16.47;65.89
61814;BME280;73144;-35.164;149.098;2024-02-15T04:19:53;94566.79;;;16.65;65.99
61814;BME280;73144;-35.164;149.098;2024-02-15T04:22:21;94567.79;;;16.67;65.95
61814;BME280;73144;-35.164;149.098;2024-02-15T04:24:50;94564.41;;;16.55;65.89
61814;BME280;73144;-35.164;149.098;2024-02-15T04:27:18;94560.87;;;16.52;66.35
61814;BME280;73144;-35.164;149.098;2024-02-15T04:29:47;94555.13;;;16.55;66.26
61814;BME280;73144;-35.164;149.098;2024-02-15T04:32:15;94558.04;;;16.40;67.06
61814;BME280;73144;-35.164;149.098;2024-02-15T04:34:45;94560.63;;;16.64;66.83
61814;BME280;73144;-35.164;149.098;2024-02-15T04:37:13;94560.82;;;16.43;66.25
61814;BME280;73144;-35.164;149.098;2024-02-15T04:39:43;94559.38;;;16.58;66.04
61814;BME280;73144;-35.164;149.098;2024-02-15T04:42:11;94557.80;;;16.31;66.44
61814;BME280;73144;-35.164;149.098;2024-02-15T04:44:40;94557.48;;;16.52;66.71
61814;BME280;73144;-35.164;149.098;2024-02-15T04:47:09;94555.36;;;16.30;66.54
61814;BME280;73144;-35.164;149.098;2024-02-15T04:49:39;94554.20;;;16.48;66.33
61814;BME280;73144;-35.164;149.098;2024-02-15T04:52:07;94550.41;;;16.41;66.53
61814;BME280;73144;-35.164;149.098;2024-02-15T04:54:36;94554.34;;;16.48;66.67
61814;BME280;73144;-35.164;149.098;2024-02-15T04:57:05;94548.81;;;16.92;66.13
61814;BME280;73144;-35.164;149.098;2024-02-15T04:59:33;94542.87;;;16.91;67.31
61814;BME280;73144;-35.164;149.098;2024-02-15T05:02:02;94541.75;;;16.74;66.33
61814;BME280;73144;-35.164;149.098;2024-02-15T05:04:31;94541.11;;;16.83;65.79
61814;BME280;73144;-35.164;149.098;2024-02-15T05:07:00;94543.18;;;17.15;66.53
61814;BME280;73144;-35.164;149.098;2024-02-15T05:09:29;94546.22;;;16.86;65.66
61814;BME280;73144;-35.164;149.098;2024-02-15T05:11:59;94547.65;;;16.84;65.35
61814;BME280;73144;-35.164;149.098;2024-02-15T05:14:28;94548.50;;;16.95;65.45
61814;BME280;73144;-35.164;149.098;2024-02-15T05:16:57;94548.26;;;17.04;65.41
61814;BME280;73144;-35.164;149.098;2024-02-15T05:19:25;94544.19;;;17.08;65.63
61814;BME280;73144;-35.164;149.098;2024-02-15T05:21:54;94541.91;;;17.20;65.24
61814;BME280;73144;-35.164;149.098;2024-02-15T05:24:23;94540.14;;;17.28;65.05
61814;BME280;73144;-35.164;149.098;2024-02-15T05:26:52;94537.09;;;17.38;65.66
61814;BME280;73144;-35.164;149.098;2024-02-15T05:29:21;94539.00;;;17.40;65.06
61814;BME280;73144;-35.164;149.098;2024-02-15T05:31:50;94539.24;;;17.31;65.37
61814;BME280;73144;-35.164;149.098;2024-02-15T05:34:18;94535.29;;;17.28;65.56
61814;BME280;73144;-35.164;149.098;2024-02-15T05:36:47;94534.58;;;17.42;65.07
61814;BME280;73144;-35.164;149.098;2024-02-15T05:39:16;94528.74;;;17.68;64.32
61814;BME280;73144;-35.164;149.098;2024-02-15T05:41:44;94522.73;;;17.85;64.67
61814;BME280;73144;-35.164;149.098;2024-02-15T05:44:14;94526.64;;;18.09;63.86
61814;BME280;73144;-35.164;149.098;2024-02-15T05:46:43;94526.77;;;17.95;64.17
61814;BME280;73144;-35.164;149.098;2024-02-15T05:49:12;94526.40;;;18.15;63.28
61814;BME280;73144;-35.164;149.098;2024-02-15T05:51:41;94520.39;;;18.10;63.29
61814;BME280;73144;-35.164;149.098;2024-02-15T05:54:10;94520.25;;;17.77;63.59
61814;BME280;73144;-35.164;149.098;2024-02-15T05:56:39;94519.49;;;17.73;63.78
61814;BME280;73144;-35.164;149.098;2024-02-15T05:59:08;94523.79;;;17.85;63.60
61814;BME280;73144;-35.164;149.098;2024-02-15T06:01:36;94522.13;;;17.86;63.64
61814;BME280;73144;-35.164;149.098;2024-02-15T06:04:05;94522.33;;;17.83;63.46
61814;BME280;73144;-35.164;149.098;2024-02-15T06:06:34;94521.15;;;17.63;63.34
61814;BME280;73144;-35.164;149.098;2024-02-15T06:09:03;94513.84;;;17.56;63.53
61814;BME280;73144;-35.164;149.098;2024-02-15T06:11:33;94511.48;;;17.84;63.65
61814;BME280;73144;-35.164;149.098;2024-02-15T06:14:01;94511.06;;;17.83;63.90
61814;BME280;73144;-35.164;149.098;2024-02-15T06:16:30;94509.78;;;17.62;64.19
61814;BME280;73144;-35.164;149.098;2024-02-15T06:18:58;94510.60;;;17.68;64.18
61814;BME280;73144;-35.164;149.098;2024-02-15T06:21:27;94512.31;;;17.91;63.41
61814;BME280;73144;-35.164;149.098;2024-02-15T06:23:55;94510.94;;;17.90;63.44
61814;BME280;73144;-35.164;149.098;2024-02-15T06:26:25;94507.96;;;17.95;63.63
61814;BME280;73144;-35.164;149.098;2024-02-15T06:28:54;94504.93;;;18.00;64.58
61814;BME280;73144;-35.164;149.098;2024-02-15T06:31:23;94510.09;;;17.92;64.05
61814;BME280;73144;-35.164;149.098;2024-02-15T06:33:52;94512.03;;;18.25;63.00
61814;BME280;73144;-35.164;149.098;2024-02-15T06:36:21;94518.77;;;18.13;62.52
61814;BME280;73144;-35.164;149.098;2024-02-15T06:38:50;94515.52;;;18.03;62.99
61814;BME280;73144;-35.164;149.098;2024-02-15T06:41:19;94516.63;;;17.90;63.16
61814;BME280;73144;-35.164;149.098;2024-02-15T06:43:47;94518.41;;;18.37;62.90
61814;BME280;73144;-35.164;149.098;2024-02-15T06:46:16;94518.84;;;18.39;62.42
61814;BME280;73144;-35.164;149.098;2024-02-15T06:48:46;94521.64;;;18.24;62.32
61814;BME280;73144;-35.164;149.098;2024-02-15T06:51:15;94522.62;;;18.13;62.98
61814;BME280;73144;-35.164;149.098;2024-02-15T06:53:43;94523.92;;;18.25;62.64
61814;BME280;73144;-35.164;149.098;2024-02-15T06:56:12;94526.15;;;17.95;62.74
61814;BME280;73144;-35.164;149.098;2024-02-15T06:58:41;94529.41;;;17.86;62.42
61814;BME280;73144;-35.164;149.098;2024-02-15T07:01:10;94522.36;;;18.27;62.22
61814;BME280;73144;-35.164;149.098;2024-02-15T07:03:38;94528.18;;;17.93;62.49
61814;BME280;73144;-35.164;149.098;2024-02-15T07:06:07;94522.63;;;18.25;62.89
61814;BME280;73144;-35.164;149.098;2024-02-15T07:08:36;94521.18;;;18.06;62.25
61814;BME280;73144;-35.164;149.098;2024-02-15T07:11:05;94520.34;;;18.23;62.10
61814;BME280;73144;-35.164;149.098;2024-02-15T07:13:34;94518.18;;;18.26;62.64
61814;BME280;73144;-35.164;149.098;2024-02-15T07:16:06;94517.69;;;18.08;62.34
61814;BME280;73144;-35.164;149.098;2024-02-15T07:18:35;94515.91;;;17.87;62.60
61814;BME280;73144;-35.164;149.098;2024-02-15T07:21:05;94514.79;;;17.88;62.76
61814;BME280;73144;-35.164;149.098;2024-02-15T07:23:34;94511.42;;;18.26;62.66
61814;BME280;73144;-35.164;149.098;2024-02-15T07:26:03;94506.12;;;17.97;62.53
61814;BME280;73144;-35.164;149.098;2024-02-15T07:28:32;94513.38;;;17.67;62.57
61814;BME280;73144;-35.164;149.098;2024-02-15T07:31:01;94509.32;;;17.89;62.49
61814;BME280;73144;-35.164;149.098;2024-02-15T07:33:30;94509.44;;;17.91;62.58
61814;BME280;73144;-35.164;149.098;2024-02-15T07:35:58;94511.27;;;18.07;62.76
61814;BME280;73144;-35.164;149.098;2024-02-15T07:38:27;94510.56;;;18.12;63.08
61814;BME280;73144;-35.164;149.098;2024-02-15T07:41:00;94508.04;;;17.67;63.04
61814;BME280;73144;-35.164;149.098;2024-02-15T07:43:29;94510.68;;;18.02;63.29
61814;BME280;73144;-35.164;149.098;2024-02-15T07:45:58;94517.39;;;17.86;63.26
61814;BME280;73144;-35.164;149.098;2024-02-15T07:48:27;94517.72;;;18.12;62.79
61814;BME280;73144;-35.164;149.098;2024-02-15T07:50:55;94520.94;;;18.02;62.42
61814;BME280;73144;-35.164;149.098;2024-02-15T07:53:24;94529.03;;;17.94;62.71
61814;BME280;73144;-35.164;149.098;2024-02-15T07:55:53;94530.12;;;18.19;62.43
61814;BME280;73144;-35.164;149.098;2024-02-15T07:58:23;94531.99;;;18.06;62.59
61814;BME280;73144;-35.164;149.098;2024-02-15T08:00:52;94537.05;;;17.87;62.37
61814;BME280;73144;-35.164;149.098;2024-02-15T08:03:21;94541.04;;;18.17;62.22
61814;BME280;73144;-35.164;149.098;2024-02-15T08:05:50;94542.14;;;18.12;61.97
61814;BME280;73144;-35.164;149.098;2024-02-15T08:08:18;94550.25;;;18.18;61.88
61814;BME280;73144;-35.164;149.098;2024-02-15T08:10:47;94559.85;;;17.76;61.91
61814;BME280;73144;-35.164;149.098;2024-02-15T08:13:15;94566.93;;;17.97;61.99
61814;BME280;73144;-35.164;149.098;2024-02-15T08:15:44;94573.75;;;17.99;62.61
61814;BME280;73144;-35.164;149.098;2024-02-15T08:18:13;94578.41;;;17.79;62.90
61814;BME280;73144;-35.164;149.098;2024-02-15T08:20:42;94584.34;;;17.57;63.55
61814;BME280;73144;-35.164;149.098;2024-02-15T08:23:10;94596.63;;;17.50;63.76
61814;BME280;73144;-35.164;149.098;2024-02-15T08:25:39;94608.12;;;17.42;64.07
61814;BME280;73144;-35.164;149.098;2024-02-15T08:28:08;94616.41;;;17.29;64.20
61814;BME280;73144;-35.164;149.098;2024-02-15T08:30:37;94620.17;;;17.08;64.67
61814;BME280;73144;-35.164;149.098;2024-02-15T08:33:06;94626.41;;;17.01;64.82
61814;BME280;73144;-35.164;149.098;2024-02-15T08:35:35;94628.12;;;16.89;65.06
61814;BME280;73144;-35.164;149.098;2024-02-15T08:38:03;94634.51;;;16.69;65.76
61814;BME280;73144;-35.164;149.098;2024-02-15T08:40:33;94632.67;;;16.66;65.64
61814;BME280;73144;-35.164;149.098;2024-02-15T08:43:01;94636.51;;;16.82;65.95
61814;BME280;73144;-35.164;149.098;2024-02-15T08:45:31;94633.68;;;16.55;66.10
61814;BME280;73144;-35.164;149.098;2024-02-15T08:47:59;94634.72;;;16.68;66.72
61814;BME280;73144;-35.164;149.098;2024-02-15T08:50:28;94632.71;;;16.41;66.59
61814;BME280;73144;-35.164;149.098;2024-02-15T08:52:57;94636.70;;;16.34;66.71
61814;BME280;73144;-35.164;149.098;2024-02-15T08:55:26;94645.50;;;16.49;67.06
61814;BME280;73144;-35.164;149.098;2024-02-15T08:57:54;94649.53;;;16.45;67.04
61814;BME280;73144;-35.164;149.098;2024-02-15T09:00:24;94654.43;;;16.38;67.50
61814;BME280;73144;-35.164;149.098;2024-02-15T09:02:52;94660.21;;;16.41;67.35
61814;BME280;73144;-35.164;149.098;2024-02-15T09:05:21;94664.02;;;16.57;67.43
61814;BME280;73144;-35.164;149.098;2024-02-15T09:07:50;94666.36;;;16.05;67.87
61814;BME280;73144;-35.164;149.098;2024-02-15T09:10:20;94673.60;;;16.43;67.99
61814;BME280;73144;-35.164;149.098;2024-02-15T09:12:49;94677.36;;;16.14;68.03
61814;BME280;73144;-35.164;149.098;2024-02-15T09:15:18;94680.53;;;16.09;68.25
61814;BME280;73144;-35.164;149.098;2024-02-15T09:17:47;94682.35;;;16.30;68.45
61814;BME280;73144;-35.164;149.098;2024-02-15T09:20:17;94681.83;;;16.22;68.77
61814;BME280;73144;-35.164;149.098;2024-02-15T09:22:48;94681.75;;;16.21;68.67
61814;BME280;73144;-35.164;149.098;2024-02-15T09:25:18;94684.10;;;16.23;68.88
61814;BME280;73144;-35.164;149.098;2024-02-15T09:27:47;94684.35;;;16.26;68.58
61814;BME280;73144;-35.164;149.098;2024-02-15T09:30:16;94682.14;;;15.90;69.01
61814;BME280;73144;-35.164;149.098;2024-02-15T09:32:46;94683.97;;;16.15;68.92
61814;BME280;73144;-35.164;149.098;2024-02-15T09:35:15;94686.25;;;16.08;69.27
61814;BME280;73144;-35.164;149.098;2024-02-15T09:37:45;94688.33;;;16.08;69.15
61814;BME280;73144;-35.164;149.098;2024-02-15T09:40:15;94692.93;;;15.85;69.32
61814;BME280;73144;-35.164;149.098;2024-02-15T09:42:46;94701.39;;;16.08;69.31
61814;BME280;73144;-35.164;149.098;2024-02-15T09:45:16;94704.47;;;16.10;69.23
61814;BME280;73144;-35.164;149.098;2024-02-15T09:47:45;94708.83;;;16.06;69.23
61814;BME280;73144;-35.164;149.098;2024-02-15T09:50:16;94714.79;;;16.07;69.26
61814;BME280;73144;-35.164;149.098;2024-02-15T09:52:47;94719.22;;;16.07;69.17
61814;BME280;73144;-35.164;149.098;2024-02-15T09:55:17;94720.00;;;15.97;69.27
61814;BME280;73144;-35.164;149.098;2024-02-15T09:57:47;94714.50;;;15.95;69.37
61814;BME280;73144;-35.164;149.098;2024-02-15T10:00:17;94705.92;;;15.96;69.21
61814;BME280;73144;-35.164;149.098;2024-02-15T10:02:48;94702.73;;;15.98;69.13
61814;BME280;73144;-35.164;149.098;2024-02-15T10:05:19;94711.00;;;15.96;69.29
61814;BME280;73144;-35.164;149.098;2024-02-15T10:07:48;94719.80;;;15.95;69.32
61814;BME280;73144;-35.164;149.098;2024-02-15T10:10:19;94719.77;;;16.18;69.11
61814;BME280;73144;-35.164;149.098;2024-02-15T10:12:48;94720.52;;;15.92;69.27
61814;BME280;73144;-35.164;149.098;2024-02-15T10:15:35;94724.42;;;15.69;69.36
61814;BME280;73144;-35.164;149.098;2024-02-15T10:18:05;94732.57;;;15.90;69.35
61814;BME280;73144;-35.164;149.098;2024-02-15T10:20:34;94740.57;;;15.87;69.65
61814;BME280;73144;-35.164;149.098;2024-02-15T10:23:11;94752.23;;;15.88;69.25
61814;BME280;73144;-35.164;149.098;2024-02-15T10:25:41;94759.39;;;15.94;69.31
61814;BME280;73144;-35.164;149.098;2024-02-15T10:28:20;94764.45;;;15.97;69.07
61814;BME280;73144;-35.164;149.098;2024-02-15T10:30:50;94772.68;;;15.71;69.28
61814;BME280;73144;-35.164;149.098;2024-02-15T10:33:26;94774.10;;;15.87;69.24
61814;BME280;73144;-35.164;149.098;2024-02-15T10:36:05;94778.95;;;15.87;69.27
61814;BME280;73144;-35.164;149.098;2024-02-15T10:38:35;94777.80;;;15.86;69.36
61814;BME280;73144;-35.164;149.098;2024-02-15T10:41:05;94781.78;;;15.86;69.11
61814;BME280;73144;-35.164;149.098;2024-02-15T10:43:35;94791.38;;;15.84;69.31
61814;BME280;73144;-35.164;149.098;2024-02-15T10:46:04;94796.91;;;15.82;69.20
61814;BME280;73144;-35.164;149.098;2024-02-15T10:48:33;94794.39;;;15.83;69.07
61814;BME280;73144;-35.164;149.098;2024-02-15T10:51:06;94798.32;;;15.82;68.99
61814;BME280;73144;-35.164;149.098;2024-02-15T10:53:39;94803.66;;;16.01;69.09
61814;BME280;73144;-35.164;149.098;2024-02-15T10:56:15;94806.36;;;15.81;69.07
61814;BME280;73144;-35.164;149.098;2024-02-15T10:58:54;94809.26;;;15.81;69.07
61814;BME280;73144;-35.164;149.098;2024-02-15T11:01:26;94820.99;;;15.80;69.18
61814;BME280;73144;-35.164;149.098;2024-02-15T11:03:59;94826.63;;;15.94;69.40
61814;BME280;73144;-35.164;149.098;2024-02-15T11:06:28;94832.17;;;16.00;69.46
61814;BME280;73144;-35.164;149.098;2024-02-15T11:08:59;94835.85;;;15.96;69.47
61814;BME280;73144;-35.164;149.098;2024-02-15T11:11:31;94840.59;;;15.72;69.46
61814;BME280;73144;-35.164;149.098;2024-02-15T11:14:26;94836.23;;;15.63;69.51
61814;BME280;73144;-35.164;149.098;2024-02-15T11:16:55;94832.05;;;15.66;69.44
61814;BME280;73144;-35.164;149.098;2024-02-15T11:19:56;94829.29;;;15.80;69.72
61814;BME280;73144;-35.164;149.098;2024-02-15T11:22:26;94833.48;;;15.86;69.73
61814;BME280;73144;-35.164;149.098;2024-02-15T11:24:55;94836.65;;;15.43;69.48
61814;BME280;73144;-35.164;149.098;2024-02-15T11:27:26;94827.14;;;15.64;69.49
61814;BME280;73144;-35.164;149.098;2024-02-15T11:29:56;94822.67;;;15.87;69.47
61814;BME280;73144;-35.164;149.098;2024-02-15T11:32:41;94824.55;;;15.64;69.56
61814;BME280;73144;-35.164;149.098;2024-02-15T11:35:11;94825.62;;;15.64;69.56
61814;BME280;73144;-35.164;149.098;2024-02-15T11:37:57;94828.77;;;15.61;69.47
61814;BME280;73144;-35.164;149.098;2024-02-15T11:40:27;94828.07;;;15.62;69.57
61814;BME280;73144;-35.164;149.098;2024-02-15T11:42:56;94832.23;;;15.58;69.72
61814;BME280;73144;-35.164;149.098;2024-02-15T11:45:25;94842.96;;;15.61;69.81
61814;BME280;73144;-35.164;149.098;2024-02-15T11:47:55;94844.94;;;15.81;69.76
61814;BME280;73144;-35.164;149.098;2024-02-15T11:50:24;94845.63;;;15.82;70.06
61814;BME280;73144;-35.164;149.098;2024-02-15T11:53:01;94844.77;;;15.56;70.11
61814;BME280;73144;-35.164;149.098;2024-02-15T11:55:30;94845.23;;;15.57;70.11
61814;BME280;73144;-35.164;149.098;2024-02-15T11:58:01;94844.28;;;15.76;70.20
61814;BME280;73144;-35.164;149.098;2024-02-15T12:00:31;94833.77;;;15.51;69.93
61814;BME280;73144;-35.164;149.098;2024-02-15T12:03:00;94828.30;;;15.49;70.16
61814;BME280;73144;-35.164;149.098;2024-02-15T12:05:29;94833.80;;;15.39;70.80
61814;BME280;73144;-35.164;149.098;2024-02-15T12:07:58;94832.01;;;15.63;70.75
61814;BME280;73144;-35.164;149.098;2024-02-15T12:10:28;94824.19;;;15.62;70.76
61814;BME280;73144;-35.164;149.098;2024-02-15T12:12:57;94824.56;;;15.58;70.87
61814;BME280;73144;-35.164;149.098;2024-02-15T12:15:26;94835.75;;;15.33;70.93
61814;BME280;73144;-35.164;149.098;2024-02-15T12:17:54;94841.07;;;15.33;71.05
61814;BME280;73144;-35.164;149.098;2024-02-15T12:20:23;94837.63;;;15.49;71.12
61814;BME280;73144;-35.164;149.098;2024-02-15T12:22:53;94838.34;;;15.73;71.22
61814;BME280;73144;-35.164;149.098;2024-02-15T12:25:22;94836.03;;;15.44;71.25
61814;BME280;73144;-35.164;149.098;2024-02-15T12:27:55;94832.59;;;15.17;71.46
61814;BME280;73144;-35.164;149.098;2024-02-15T12:30:25;94832.41;;;15.32;71.69
61814;BME280;73144;-35.164;149.098;2024-02-15T12:33:10;94838.48;;;15.02;72.07
61814;BME280;73144;-35.164;149.098;2024-02-15T12:35:39;94839.27;;;15.23;71.90
61814;BME280;73144;-35.164;149.098;2024-02-15T12:38:08;94833.82;;;15.03;71.85
61814;BME280;73144;-35.164;149.098;2024-02-15T12:40:38;94827.69;;;15.49;71.82
61814;BME280;73144;-35.164;149.098;2024-02-15T12:43:08;94828.27;;;15.17;71.77